Flight Track Log - Related Links

Times and Time Zones

All times are in EDT time to prevent confusion due to time zone crossing. See the SWA448 flight status page for this flight to view local times or setup timezone preferences in your user account.

Time Position Orientation Groundspeed Altitude Reporting Facility
EDT Latitude Longitude Course Direction KTS MPH feet Rate Location/Type
Mon 08:23:52 AM 39.1667 -76.7167 184° South 179 206 2,000  Level Potomac TRACON
Mon 08:24:46 AM 39.1167 -76.7000 165° South 229 264 4,300 2,421 Climbing Potomac TRACON
Mon 08:25:46 AM 39.0667 -76.6333 134° Southeast 271 312 6,600 1,650 Climbing Potomac TRACON
Mon 08:26:46 AM 39.0167 -76.5667 134° Southeast 287 330 7,600 2,132 Climbing Potomac TRACON
Mon 08:27:47 AM 38.9333 -76.5167 155° Southeast 295 339 10,900 3,074 Climbing Potomac TRACON
Mon 08:28:47 AM 38.8500 -76.4833 163° South 342 394 13,800 1,252 Climbing Potomac TRACON
Mon 08:29:00 AM 38.6769 -76.7073 184° South  Level FlightAware Approximate
Mon 08:31:13 AM 38.6692 -76.6128 209° Southwest 330 380 15,200  Level Washington Center
Mon 08:32:15 AM 38.5894 -76.6967 219° Southwest 355 409 17,000 908 Climbing Washington Center
Mon 08:33:12 AM 38.4828 -76.7189 189° South 372 428 17,000 51 Level Washington Center
Mon 08:34:12 AM 38.3761 -76.7439 190° South 378 435 17,100 1,400 Climbing Washington Center
Mon 08:35:12 AM 38.2592 -76.7817 194° South 383 441 19,800 2,410 Climbing Washington Center
Mon 08:36:14 AM 38.1503 -76.8222 196° South 398 458 22,000 1,100 Climbing Washington Center
Mon 08:37:12 AM 38.0414 -76.8625 196° South 404 465 22,000  Level Washington Center
Mon 08:38:13 AM 37.9325 -76.9003 195° South 404 465 22,000  Level Washington Center
Mon 08:39:13 AM 37.8319 -76.9381 197° South 410 472 22,000  Level Washington Center
Mon 08:40:14 AM 37.7211 -76.9753 195° South 416 479 22,000  Level Washington Center
Mon 08:41:14 AM 37.6100 -77.0153 196° South 421 484 22,000  Level Washington Center
Mon 08:42:12 AM 37.4844 -77.0600 196° South 421 484 22,000  Level Washington Center
Mon 08:43:12 AM 37.3733 -77.1022 197° South 421 484 22,000  Level Washington Center
Mon 08:44:13 AM 37.2661 -77.1603 203° Southwest 421 484 22,000 -98 Level Washington Center
Mon 08:45:14 AM 37.1692 -77.2314 210° Southwest 415 478 21,800 -595 Descending Washington Center
Mon 08:46:14 AM 37.0806 -77.3153 217° Southwest 410 472 20,800 -915 Descending Washington Center
Mon 08:47:12 AM 36.9958 -77.3967 218° Southwest 404 465 20,000 -403 Descending Washington Center
Mon 08:48:13 AM 36.9089 -77.4778 217° Southwest 399 459 20,000  Level Washington Center
Mon 08:49:13 AM 36.8200 -77.5611 217° Southwest 399 459 20,000  Level Washington Center
Mon 08:50:14 AM 36.7353 -77.6444 218° Southwest 399 459 20,000  Level Washington Center
Mon 08:51:12 AM 36.6461 -77.7250 216° Southwest 399 459 20,000 -101 Level Washington Center
Mon 08:52:13 AM 36.5569 -77.8081 217° Southwest 399 459 19,800 -1,091 Descending Washington Center
Mon 08:53:13 AM 36.4742 -77.8856 217° Southwest 399 459 17,800 -2,430 Descending Washington Center
Mon 08:54:14 AM 36.3956 -77.9608 218° Southwest 386 444 14,900 -2,628 Descending Washington Center
Mon 08:55:14 AM 36.3147 -78.0331 216° Southwest 368 423 12,500 -2,237 Descending Washington Center
Mon 08:56:12 AM 36.2403 -78.1056 218° Southwest 362 417 10,500 -1,475 Descending Washington Center
Mon 08:57:12 AM 36.1844 -78.1808 227° Southwest 315 362 9,600 -1,289 Descending Washington Center
Mon 08:58:13 AM 36.1492 -78.2647 243° Southwest 253 291 7,900 -1,559 Descending Washington Center
Mon 08:59:19 AM 36.1181 -78.3536 247° West 252 290 6,300 -945 Descending Washington Center
Mon 09:00:20 AM 36.0933 -78.4247 247° West 221 254 5,900 -891 Descending Washington Center
Mon 09:01:27 AM 36.0664 -78.5033 247° West 209 241 4,400 -1,168 Descending Washington Center
Mon 09:02:13 AM 36.0506 -78.5517 248° West 220 253 3,700 -849 Descending Washington Center
Mon 09:03:13 AM 36.0261 -78.6200 246° West 220 253 2,900 -645 Descending Washington Center
Mon 09:04:14 AM 35.9850 -78.6697 224° Southwest 214 246 2,400 -581 Descending Washington Center
Mon 09:05:17 AM 35.9442 -78.7144 222° Southwest 170 196 1,700 -683 Descending Washington Center
Mon 09:06:17 AM 35.9161 -78.7517 227° Southwest 144 166 1,000 -700 Descending Washington Center
Mon 09:08:00 AM 35.8776 -78.7875 202° Southwest  Level Estimated
Mon 09:15:00 AM 35.8776 -78.7875 349° North  Level Estimated

Login

Don't have an account? Register now (free) for customized features, flight alerts, and more!